sensor_id;sensor_type;location;lat;lon;timestamp;temperature;humidity
17715;DHT22;8977;50.902;4.314;2023-10-31T00:00:44;14.50;99.90
17715;DHT22;8977;50.902;4.314;2023-10-31T00:03:11;14.50;99.90
17715;DHT22;8977;50.902;4.314;2023-10-31T00:05:38;14.50;99.90
17715;DHT22;8977;50.902;4.314;2023-10-31T00:08:05;14.50;99.90
17715;DHT22;8977;50.902;4.314;2023-10-31T00:10:32;14.60;99.90
17715;DHT22;8977;50.902;4.314;2023-10-31T00:12:59;14.60;99.90
17715;DHT22;8977;50.902;4.314;2023-10-31T00:15:27;14.60;99.90
17715;DHT22;8977;50.902;4.314;2023-10-31T00:17:56;14.60;99.90
17715;DHT22;8977;50.902;4.314;2023-10-31T00:20:23;14.50;99.90
17715;DHT22;8977;50.902;4.314;2023-10-31T00:22:49;14.50;99.90
17715;DHT22;8977;50.902;4.314;2023-10-31T00:25:17;14.60;99.90
17715;DHT22;8977;50.902;4.314;2023-10-31T00:27:43;14.50;99.90
17715;DHT22;8977;50.902;4.314;2023-10-31T00:30:11;14.60;99.90
17715;DHT22;8977;50.902;4.314;2023-10-31T00:32:39;14.70;99.90
17715;DHT22;8977;50.902;4.314;2023-10-31T00:35:07;14.70;99.90
17715;DHT22;8977;50.902;4.314;2023-10-31T00:37:34;14.70;99.90
17715;DHT22;8977;50.902;4.314;2023-10-31T00:40:02;14.70;99.90
17715;DHT22;8977;50.902;4.314;2023-10-31T00:42:29;14.60;99.90
17715;DHT22;8977;50.902;4.314;2023-10-31T00:44:55;14.60;99.90
17715;DHT22;8977;50.902;4.314;2023-10-31T00:47:22;14.60;99.90
17715;DHT22;8977;50.902;4.314;2023-10-31T00:49:50;14.60;99.90
17715;DHT22;8977;50.902;4.314;2023-10-31T00:52:18;14.60;99.90
17715;DHT22;8977;50.902;4.314;2023-10-31T00:54:45;14.60;99.90
17715;DHT22;8977;50.902;4.314;2023-10-31T00:57:12;14.50;99.90
17715;DHT22;8977;50.902;4.314;2023-10-31T00:59:39;14.50;99.90
17715;DHT22;8977;50.902;4.314;2023-10-31T01:02:06;14.50;99.90
17715;DHT22;8977;50.902;4.314;2023-10-31T01:04:33;14.60;99.90
17715;DHT22;8977;50.902;4.314;2023-10-31T01:07:04;14.50;99.90
17715;DHT22;8977;50.902;4.314;2023-10-31T01:09:31;14.50;99.90
17715;DHT22;8977;50.902;4.314;2023-10-31T01:11:57;14.50;99.90
17715;DHT22;8977;50.902;4.314;2023-10-31T01:14:24;14.60;99.90
17715;DHT22;8977;50.902;4.314;2023-10-31T01:16:51;14.50;99.90
17715;DHT22;8977;50.902;4.314;2023-10-31T01:19:18;14.50;99.90
17715;DHT22;8977;50.902;4.314;2023-10-31T01:21:45;14.50;99.90
17715;DHT22;8977;50.902;4.314;2023-10-31T01:24:13;14.50;99.90
17715;DHT22;8977;50.902;4.314;2023-10-31T01:26:40;14.40;99.90
17715;DHT22;8977;50.902;4.314;2023-10-31T01:29:07;14.40;99.90
17715;DHT22;8977;50.902;4.314;2023-10-31T01:31:34;14.50;99.90
17715;DHT22;8977;50.902;4.314;2023-10-31T01:34:02;14.40;99.90
17715;DHT22;8977;50.902;4.314;2023-10-31T01:36:29;14.40;99.90
17715;DHT22;8977;50.902;4.314;2023-10-31T01:38:56;14.40;99.90
17715;DHT22;8977;50.902;4.314;2023-10-31T01:41:24;14.40;99.90
17715;DHT22;8977;50.902;4.314;2023-10-31T01:43:53;14.40;99.90
17715;DHT22;8977;50.902;4.314;2023-10-31T01:46:20;14.50;99.90
17715;DHT22;8977;50.902;4.314;2023-10-31T01:48:47;14.40;99.90
17715;DHT22;8977;50.902;4.314;2023-10-31T01:51:14;14.30;99.90
17715;DHT22;8977;50.902;4.314;2023-10-31T01:53:41;14.30;99.90
17715;DHT22;8977;50.902;4.314;2023-10-31T01:56:08;14.30;99.90
17715;DHT22;8977;50.902;4.314;2023-10-31T01:58:37;14.30;99.90
17715;DHT22;8977;50.902;4.314;2023-10-31T02:01:05;14.40;99.90
17715;DHT22;8977;50.902;4.314;2023-10-31T02:03:32;14.30;99.90
17715;DHT22;8977;50.902;4.314;2023-10-31T02:06:00;14.30;99.90
17715;DHT22;8977;50.902;4.314;2023-10-31T02:08:26;14.30;99.90
17715;DHT22;8977;50.902;4.314;2023-10-31T02:10:53;14.40;99.90
17715;DHT22;8977;50.902;4.314;2023-10-31T02:13:20;14.40;99.90
17715;DHT22;8977;50.902;4.314;2023-10-31T02:15:49;14.40;99.90
17715;DHT22;8977;50.902;4.314;2023-10-31T02:18:16;14.50;99.90
17715;DHT22;8977;50.902;4.314;2023-10-31T02:20:43;14.40;99.90
17715;DHT22;8977;50.902;4.314;2023-10-31T02:23:11;14.40;99.90
17715;DHT22;8977;50.902;4.314;2023-10-31T02:25:38;14.30;99.90
17715;DHT22;8977;50.902;4.314;2023-10-31T02:28:05;14.30;99.90
17715;DHT22;8977;50.902;4.314;2023-10-31T02:30:33;14.30;99.90
17715;DHT22;8977;50.902;4.314;2023-10-31T02:33:01;14.40;99.90
17715;DHT22;8977;50.902;4.314;2023-10-31T02:35:28;14.40;99.90
17715;DHT22;8977;50.902;4.314;2023-10-31T02:37:55;14.50;99.90
17715;DHT22;8977;50.902;4.314;2023-10-31T02:40:23;14.40;99.90
17715;DHT22;8977;50.902;4.314;2023-10-31T02:42:50;14.30;99.90
17715;DHT22;8977;50.902;4.314;2023-10-31T02:45:17;14.30;99.90
17715;DHT22;8977;50.902;4.314;2023-10-31T02:47:44;14.40;99.90
17715;DHT22;8977;50.902;4.314;2023-10-31T02:50:13;14.30;99.90
17715;DHT22;8977;50.902;4.314;2023-10-31T02:52:40;14.40;99.90
17715;DHT22;8977;50.902;4.314;2023-10-31T02:55:07;14.40;99.90
17715;DHT22;8977;50.902;4.314;2023-10-31T02:57:36;14.40;99.90
17715;DHT22;8977;50.902;4.314;2023-10-31T03:00:03;14.30;99.90
17715;DHT22;8977;50.902;4.314;2023-10-31T03:02:30;14.30;99.90
17715;DHT22;8977;50.902;4.314;2023-10-31T03:04:57;14.20;99.90
17715;DHT22;8977;50.902;4.314;2023-10-31T03:07:24;14.30;99.90
17715;DHT22;8977;50.902;4.314;2023-10-31T03:09:51;14.20;99.90
17715;DHT22;8977;50.902;4.314;2023-10-31T03:12:19;14.10;99.90
17715;DHT22;8977;50.902;4.314;2023-10-31T03:14:48;14.20;99.90
17715;DHT22;8977;50.902;4.314;2023-10-31T03:17:15;14.20;99.90
17715;DHT22;8977;50.902;4.314;2023-10-31T03:19:42;14.30;99.90
17715;DHT22;8977;50.902;4.314;2023-10-31T03:22:09;14.20;99.90
17715;DHT22;8977;50.902;4.314;2023-10-31T03:24:36;14.20;99.90
17715;DHT22;8977;50.902;4.314;2023-10-31T03:27:03;14.20;99.90
17715;DHT22;8977;50.902;4.314;2023-10-31T03:29:30;14.10;99.90
17715;DHT22;8977;50.902;4.314;2023-10-31T03:31:58;14.10;99.90
17715;DHT22;8977;50.902;4.314;2023-10-31T03:34:25;14.10;99.90
17715;DHT22;8977;50.902;4.314;2023-10-31T03:36:52;14.10;99.90
17715;DHT22;8977;50.902;4.314;2023-10-31T03:39:19;14.10;99.90
17715;DHT22;8977;50.902;4.314;2023-10-31T03:41:45;14.10;99.90
17715;DHT22;8977;50.902;4.314;2023-10-31T03:44:13;14.20;99.90
17715;DHT22;8977;50.902;4.314;2023-10-31T03:46:40;14.20;99.90
17715;DHT22;8977;50.902;4.314;2023-10-31T03:49:08;14.10;99.90
17715;DHT22;8977;50.902;4.314;2023-10-31T03:51:35;14.10;99.90
17715;DHT22;8977;50.902;4.314;2023-10-31T03:54:02;14.10;99.90
17715;DHT22;8977;50.902;4.314;2023-10-31T03:56:29;14.10;99.90
17715;DHT22;8977;50.902;4.314;2023-10-31T03:58:56;14.10;99.90
17715;DHT22;8977;50.902;4.314;2023-10-31T04:01:23;14.10;99.90
17715;DHT22;8977;50.902;4.314;2023-10-31T04:03:49;14.20;99.90
17715;DHT22;8977;50.902;4.314;2023-10-31T04:06:18;14.20;99.90
17715;DHT22;8977;50.902;4.314;2023-10-31T04:08:45;14.10;99.90
17715;DHT22;8977;50.902;4.314;2023-10-31T04:11:12;14.10;99.90
17715;DHT22;8977;50.902;4.314;2023-10-31T04:13:39;14.10;99.90
17715;DHT22;8977;50.902;4.314;2023-10-31T04:16:06;14.10;99.90
17715;DHT22;8977;50.902;4.314;2023-10-31T04:18:33;14.20;99.90
17715;DHT22;8977;50.902;4.314;2023-10-31T04:21:01;14.10;99.90
17715;DHT22;8977;50.902;4.314;2023-10-31T04:23:29;14.10;99.90
17715;DHT22;8977;50.902;4.314;2023-10-31T04:25:56;14.00;99.90
17715;DHT22;8977;50.902;4.314;2023-10-31T04:28:23;14.00;99.90
17715;DHT22;8977;50.902;4.314;2023-10-31T04:30:50;14.00;99.90
17715;DHT22;8977;50.902;4.314;2023-10-31T04:33:17;14.10;99.90
17715;DHT22;8977;50.902;4.314;2023-10-31T04:35:45;14.10;99.90
17715;DHT22;8977;50.902;4.314;2023-10-31T04:38:12;14.00;99.90
17715;DHT22;8977;50.902;4.314;2023-10-31T04:40:40;14.10;99.90
17715;DHT22;8977;50.902;4.314;2023-10-31T04:43:08;14.00;99.90
17715;DHT22;8977;50.902;4.314;2023-10-31T04:45:35;14.00;99.90
17715;DHT22;8977;50.902;4.314;2023-10-31T04:48:02;14.10;99.90
17715;DHT22;8977;50.902;4.314;2023-10-31T04:50:29;14.00;99.90
17715;DHT22;8977;50.902;4.314;2023-10-31T04:52:55;14.00;99.90
17715;DHT22;8977;50.902;4.314;2023-10-31T04:55:22;13.90;99.90
17715;DHT22;8977;50.902;4.314;2023-10-31T04:57:52;13.90;99.90
17715;DHT22;8977;50.902;4.314;2023-10-31T05:00:19;13.90;99.90
17715;DHT22;8977;50.902;4.314;2023-10-31T05:02:46;13.90;99.90
17715;DHT22;8977;50.902;4.314;2023-10-31T05:05:15;13.90;99.90
17715;DHT22;8977;50.902;4.314;2023-10-31T05:07:42;14.00;99.90
17715;DHT22;8977;50.902;4.314;2023-10-31T05:10:09;14.00;99.90
17715;DHT22;8977;50.902;4.314;2023-10-31T05:12:36;14.10;99.90
17715;DHT22;8977;50.902;4.314;2023-10-31T05:15:05;14.00;99.90
17715;DHT22;8977;50.902;4.314;2023-10-31T05:17:33;13.90;99.90
17715;DHT22;8977;50.902;4.314;2023-10-31T05:20:00;13.90;99.90
17715;DHT22;8977;50.902;4.314;2023-10-31T05:22:26;14.00;99.90
17715;DHT22;8977;50.902;4.314;2023-10-31T05:24:53;13.90;99.90
17715;DHT22;8977;50.902;4.314;2023-10-31T05:27:20;14.00;99.90
17715;DHT22;8977;50.902;4.314;2023-10-31T05:29:47;14.00;99.90
17715;DHT22;8977;50.902;4.314;2023-10-31T05:32:15;13.90;99.90
17715;DHT22;8977;50.902;4.314;2023-10-31T05:34:42;14.00;99.90
17715;DHT22;8977;50.902;4.314;2023-10-31T05:37:09;14.00;99.90
17715;DHT22;8977;50.902;4.314;2023-10-31T05:39:36;14.10;99.90
17715;DHT22;8977;50.902;4.314;2023-10-31T05:42:03;14.10;99.90
17715;DHT22;8977;50.902;4.314;2023-10-31T05:44:30;14.10;99.90
17715;DHT22;8977;50.902;4.314;2023-10-31T05:46:57;14.10;99.90
17715;DHT22;8977;50.902;4.314;2023-10-31T05:49:25;14.10;99.90
17715;DHT22;8977;50.902;4.314;2023-10-31T05:51:52;14.10;99.90
17715;DHT22;8977;50.902;4.314;2023-10-31T05:54:19;14.00;99.90
17715;DHT22;8977;50.902;4.314;2023-10-31T05:56:47;14.00;99.90
17715;DHT22;8977;50.902;4.314;2023-10-31T05:59:14;14.10;99.90
17715;DHT22;8977;50.902;4.314;2023-10-31T06:01:40;14.00;99.90
17715;DHT22;8977;50.902;4.314;2023-10-31T06:04:07;14.00;99.90
17715;DHT22;8977;50.902;4.314;2023-10-31T06:06:37;14.00;99.90
17715;DHT22;8977;50.902;4.314;2023-10-31T06:09:04;14.10;99.90
17715;DHT22;8977;50.902;4.314;2023-10-31T06:11:31;14.10;99.90
17715;DHT22;8977;50.902;4.314;2023-10-31T06:13:59;14.10;99.90
17715;DHT22;8977;50.902;4.314;2023-10-31T06:16:26;14.10;99.90
17715;DHT22;8977;50.902;4.314;2023-10-31T06:18:52;14.00;99.90
17715;DHT22;8977;50.902;4.314;2023-10-31T06:21:19;14.10;99.90
17715;DHT22;8977;50.902;4.314;2023-10-31T06:23:47;14.10;99.90
17715;DHT22;8977;50.902;4.314;2023-10-31T06:26:14;14.10;99.90
17715;DHT22;8977;50.902;4.314;2023-10-31T06:28:42;14.10;99.90
17715;DHT22;8977;50.902;4.314;2023-10-31T06:31:09;14.00;99.90
17715;DHT22;8977;50.902;4.314;2023-10-31T06:33:36;14.10;99.90
17715;DHT22;8977;50.902;4.314;2023-10-31T06:36:03;14.10;99.90
17715;DHT22;8977;50.902;4.314;2023-10-31T06:38:30;14.20;99.90
17715;DHT22;8977;50.902;4.314;2023-10-31T06:40:58;14.10;99.90
17715;DHT22;8977;50.902;4.314;2023-10-31T06:43:25;14.10;99.90
17715;DHT22;8977;50.902;4.314;2023-10-31T06:45:53;14.20;99.90
17715;DHT22;8977;50.902;4.314;2023-10-31T06:48:20;14.10;99.90
17715;DHT22;8977;50.902;4.314;2023-10-31T06:50:47;14.20;99.90
17715;DHT22;8977;50.902;4.314;2023-10-31T06:53:13;14.20;99.90
17715;DHT22;8977;50.902;4.314;2023-10-31T06:55:40;14.20;99.90
17715;DHT22;8977;50.902;4.314;2023-10-31T06:58:09;14.20;99.90
17715;DHT22;8977;50.902;4.314;2023-10-31T07:00:35;14.20;99.90
17715;DHT22;8977;50.902;4.314;2023-10-31T07:03:03;14.20;99.90
17715;DHT22;8977;50.902;4.314;2023-10-31T07:05:34;14.20;99.90
17715;DHT22;8977;50.902;4.314;2023-10-31T07:08:01;14.20;99.90
17715;DHT22;8977;50.902;4.314;2023-10-31T07:10:28;14.20;99.90
17715;DHT22;8977;50.902;4.314;2023-10-31T07:12:55;14.20;99.90
17715;DHT22;8977;50.902;4.314;2023-10-31T07:15:25;14.20;99.90
17715;DHT22;8977;50.902;4.314;2023-10-31T07:17:54;14.20;99.90
17715;DHT22;8977;50.902;4.314;2023-10-31T07:20:20;14.20;99.90
17715;DHT22;8977;50.902;4.314;2023-10-31T07:22:47;14.20;99.90
17715;DHT22;8977;50.902;4.314;2023-10-31T07:25:14;14.20;99.90
17715;DHT22;8977;50.902;4.314;2023-10-31T07:27:41;14.30;99.90
17715;DHT22;8977;50.902;4.314;2023-10-31T07:30:08;14.20;99.90
17715;DHT22;8977;50.902;4.314;2023-10-31T07:32:37;14.20;99.90
17715;DHT22;8977;50.902;4.314;2023-10-31T07:35:05;14.10;99.90
17715;DHT22;8977;50.902;4.314;2023-10-31T07:37:32;14.20;99.90
17715;DHT22;8977;50.902;4.314;2023-10-31T07:39:59;14.20;99.90
17715;DHT22;8977;50.902;4.314;2023-10-31T07:42:25;14.20;99.90
17715;DHT22;8977;50.902;4.314;2023-10-31T07:44:52;14.20;99.90
17715;DHT22;8977;50.902;4.314;2023-10-31T07:47:19;14.20;99.90
17715;DHT22;8977;50.902;4.314;2023-10-31T07:49:48;14.30;99.90
17715;DHT22;8977;50.902;4.314;2023-10-31T07:52:15;14.30;99.90
17715;DHT22;8977;50.902;4.314;2023-10-31T07:54:41;14.30;99.90
17715;DHT22;8977;50.902;4.314;2023-10-31T07:57:09;14.30;99.90
17715;DHT22;8977;50.902;4.314;2023-10-31T07:59:36;14.30;99.90
17715;DHT22;8977;50.902;4.314;2023-10-31T08:02:03;14.20;99.90
17715;DHT22;8977;50.902;4.314;2023-10-31T08:04:30;14.20;99.90
17715;DHT22;8977;50.902;4.314;2023-10-31T08:06:59;14.30;99.90
17715;DHT22;8977;50.902;4.314;2023-10-31T08:09:26;14.30;99.90
17715;DHT22;8977;50.902;4.314;2023-10-31T08:11:52;14.20;99.90
17715;DHT22;8977;50.902;4.314;2023-10-31T08:14:19;14.20;99.90
17715;DHT22;8977;50.902;4.314;2023-10-31T08:16:48;14.20;99.90
17715;DHT22;8977;50.902;4.314;2023-10-31T08:19:15;14.20;99.90
17715;DHT22;8977;50.902;4.314;2023-10-31T08:21:42;14.20;99.90
17715;DHT22;8977;50.902;4.314;2023-10-31T08:24:10;14.20;99.90
17715;DHT22;8977;50.902;4.314;2023-10-31T08:26:39;14.20;99.90
17715;DHT22;8977;50.902;4.314;2023-10-31T08:29:06;14.10;99.90
17715;DHT22;8977;50.902;4.314;2023-10-31T08:31:32;14.20;99.90
17715;DHT22;8977;50.902;4.314;2023-10-31T08:33:59;14.20;99.90
17715;DHT22;8977;50.902;4.314;2023-10-31T08:36:26;14.20;99.90
17715;DHT22;8977;50.902;4.314;2023-10-31T08:38:53;14.10;99.90
17715;DHT22;8977;50.902;4.314;2023-10-31T08:41:22;14.20;99.90
17715;DHT22;8977;50.902;4.314;2023-10-31T08:43:48;14.10;99.90
17715;DHT22;8977;50.902;4.314;2023-10-31T08:46:15;14.10;99.90
17715;DHT22;8977;50.902;4.314;2023-10-31T08:48:43;14.10;99.90
17715;DHT22;8977;50.902;4.314;2023-10-31T08:51:10;14.20;99.90
17715;DHT22;8977;50.902;4.314;2023-10-31T08:53:37;14.10;99.90
17715;DHT22;8977;50.902;4.314;2023-10-31T08:56:04;14.20;99.90
17715;DHT22;8977;50.902;4.314;2023-10-31T08:58:32;14.20;99.90
17715;DHT22;8977;50.902;4.314;2023-10-31T09:00:59;14.30;99.90
17715;DHT22;8977;50.902;4.314;2023-10-31T09:03:26;14.30;99.90
17715;DHT22;8977;50.902;4.314;2023-10-31T09:05:53;14.30;99.90
17715;DHT22;8977;50.902;4.314;2023-10-31T09:08:20;14.30;99.90
17715;DHT22;8977;50.902;4.314;2023-10-31T09:10:47;14.20;99.90
17715;DHT22;8977;50.902;4.314;2023-10-31T09:13:14;14.20;99.90
17715;DHT22;8977;50.902;4.314;2023-10-31T09:15:42;14.20;99.90
17715;DHT22;8977;50.902;4.314;2023-10-31T09:18:11;14.30;99.90
17715;DHT22;8977;50.902;4.314;2023-10-31T09:20:38;14.30;99.90
17715;DHT22;8977;50.902;4.314;2023-10-31T09:23:05;14.30;99.90
17715;DHT22;8977;50.902;4.314;2023-10-31T09:25:32;14.20;99.90
17715;DHT22;8977;50.902;4.314;2023-10-31T09:27:58;14.30;99.90
17715;DHT22;8977;50.902;4.314;2023-10-31T09:30:25;14.40;99.90
17715;DHT22;8977;50.902;4.314;2023-10-31T09:32:53;14.40;99.90
17715;DHT22;8977;50.902;4.314;2023-10-31T09:35:20;14.40;99.90
17715;DHT22;8977;50.902;4.314;2023-10-31T09:37:47;14.50;99.90
17715;DHT22;8977;50.902;4.314;2023-10-31T09:40:15;14.40;99.90
17715;DHT22;8977;50.902;4.314;2023-10-31T09:42:43;14.40;99.90
17715;DHT22;8977;50.902;4.314;2023-10-31T09:45:10;14.40;99.90
17715;DHT22;8977;50.902;4.314;2023-10-31T09:47:37;14.50;99.90
17715;DHT22;8977;50.902;4.314;2023-10-31T09:50:06;14.40;99.90
17715;DHT22;8977;50.902;4.314;2023-10-31T09:52:35;14.40;99.90
17715;DHT22;8977;50.902;4.314;2023-10-31T09:55:03;14.40;99.90
17715;DHT22;8977;50.902;4.314;2023-10-31T09:57:30;14.40;99.90
17715;DHT22;8977;50.902;4.314;2023-10-31T09:59:57;14.50;99.90
17715;DHT22;8977;50.902;4.314;2023-10-31T10:02:24;14.40;99.90
17715;DHT22;8977;50.902;4.314;2023-10-31T10:04:51;14.40;99.90
17715;DHT22;8977;50.902;4.314;2023-10-31T10:07:20;14.40;99.90
17715;DHT22;8977;50.902;4.314;2023-10-31T10:09:47;14.50;99.90
17715;DHT22;8977;50.902;4.314;2023-10-31T10:12:15;14.50;99.90
17715;DHT22;8977;50.902;4.314;2023-10-31T10:14:44;14.60;99.90
17715;DHT22;8977;50.902;4.314;2023-10-31T10:17:15;14.60;99.90
17715;DHT22;8977;50.902;4.314;2023-10-31T10:19:43;14.50;99.90
17715;DHT22;8977;50.902;4.314;2023-10-31T10:22:10;14.50;99.90
17715;DHT22;8977;50.902;4.314;2023-10-31T10:24:41;14.50;99.90
17715;DHT22;8977;50.902;4.314;2023-10-31T10:27:08;14.60;99.90
17715;DHT22;8977;50.902;4.314;2023-10-31T10:29:35;14.50;99.90
17715;DHT22;8977;50.902;4.314;2023-10-31T10:32:05;14.50;99.90
17715;DHT22;8977;50.902;4.314;2023-10-31T10:34:34;14.50;99.90
17715;DHT22;8977;50.902;4.314;2023-10-31T10:37:04;14.50;99.90
17715;DHT22;8977;50.902;4.314;2023-10-31T10:39:32;14.60;99.90
17715;DHT22;8977;50.902;4.314;2023-10-31T10:42:01;14.60;99.90
17715;DHT22;8977;50.902;4.314;2023-10-31T10:44:34;14.50;99.90
17715;DHT22;8977;50.902;4.314;2023-10-31T10:47:05;14.50;99.90
17715;DHT22;8977;50.902;4.314;2023-10-31T10:49:34;14.60;99.90
17715;DHT22;8977;50.902;4.314;2023-10-31T10:52:10;14.60;99.90
17715;DHT22;8977;50.902;4.314;2023-10-31T10:54:44;14.50;99.90
17715;DHT22;8977;50.902;4.314;2023-10-31T10:57:15;14.60;99.90
17715;DHT22;8977;50.902;4.314;2023-10-31T10:59:48;14.60;99.90
17715;DHT22;8977;50.902;4.314;2023-10-31T11:02:18;14.60;99.90
17715;DHT22;8977;50.902;4.314;2023-10-31T11:04:45;14.50;99.90
17715;DHT22;8977;50.902;4.314;2023-10-31T11:07:14;14.60;99.90
17715;DHT22;8977;50.902;4.314;2023-10-31T11:09:42;14.60;99.90
17715;DHT22;8977;50.902;4.314;2023-10-31T11:12:10;14.60;99.90
17715;DHT22;8977;50.902;4.314;2023-10-31T11:14:40;14.70;99.90
17715;DHT22;8977;50.902;4.314;2023-10-31T11:17:14;14.60;99.90
17715;DHT22;8977;50.902;4.314;2023-10-31T11:19:42;14.60;99.90
17715;DHT22;8977;50.902;4.314;2023-10-31T11:22:10;14.50;99.90
17715;DHT22;8977;50.902;4.314;2023-10-31T11:24:37;14.60;99.90
17715;DHT22;8977;50.902;4.314;2023-10-31T11:27:06;14.60;99.90
17715;DHT22;8977;50.902;4.314;2023-10-31T11:29:33;14.60;99.90
17715;DHT22;8977;50.902;4.314;2023-10-31T11:32:03;14.60;99.90
17715;DHT22;8977;50.902;4.314;2023-10-31T11:34:30;14.50;99.90
17715;DHT22;8977;50.902;4.314;2023-10-31T11:37:18;14.60;99.90
17715;DHT22;8977;50.902;4.314;2023-10-31T11:40:16;14.60;99.90
17715;DHT22;8977;50.902;4.314;2023-10-31T11:42:43;14.60;99.90
17715;DHT22;8977;50.902;4.314;2023-10-31T11:45:11;14.60;99.90
17715;DHT22;8977;50.902;4.314;2023-10-31T11:47:49;14.60;99.90
17715;DHT22;8977;50.902;4.314;2023-10-31T11:50:17;14.60;99.90
17715;DHT22;8977;50.902;4.314;2023-10-31T11:52:44;14.60;99.90
17715;DHT22;8977;50.902;4.314;2023-10-31T11:55:11;14.60;99.90
17715;DHT22;8977;50.902;4.314;2023-10-31T11:57:41;14.60;99.90
17715;DHT22;8977;50.902;4.314;2023-10-31T12:00:20;14.50;99.90
17715;DHT22;8977;50.902;4.314;2023-10-31T12:02:58;14.50;99.90
17715;DHT22;8977;50.902;4.314;2023-10-31T12:05:25;14.50;99.90
17715;DHT22;8977;50.902;4.314;2023-10-31T12:07:53;14.40;99.90
17715;DHT22;8977;50.902;4.314;2023-10-31T12:10:24;14.50;99.90
17715;DHT22;8977;50.902;4.314;2023-10-31T12:12:52;14.50;99.90
17715;DHT22;8977;50.902;4.314;2023-10-31T12:15:19;14.50;99.90
17715;DHT22;8977;50.902;4.314;2023-10-31T12:17:46;14.50;99.90
17715;DHT22;8977;50.902;4.314;2023-10-31T12:20:15;14.50;99.90
17715;DHT22;8977;50.902;4.314;2023-10-31T12:22:42;14.50;99.90
17715;DHT22;8977;50.902;4.314;2023-10-31T12:25:10;14.60;99.90
17715;DHT22;8977;50.902;4.314;2023-10-31T12:27:44;14.50;99.90
17715;DHT22;8977;50.902;4.314;2023-10-31T12:30:12;14.50;99.90
17715;DHT22;8977;50.902;4.314;2023-10-31T12:32:40;14.50;99.90
17715;DHT22;8977;50.902;4.314;2023-10-31T12:35:09;14.50;99.90
17715;DHT22;8977;50.902;4.314;2023-10-31T12:37:43;14.50;99.90
17715;DHT22;8977;50.902;4.314;2023-10-31T12:40:12;14.60;99.90
17715;DHT22;8977;50.902;4.314;2023-10-31T12:42:41;14.60;99.90
17715;DHT22;8977;50.902;4.314;2023-10-31T12:45:09;14.60;99.90
17715;DHT22;8977;50.902;4.314;2023-10-31T12:47:36;14.60;99.90
17715;DHT22;8977;50.902;4.314;2023-10-31T12:50:07;14.60;99.90
17715;DHT22;8977;50.902;4.314;2023-10-31T12:52:49;14.50;99.90
17715;DHT22;8977;50.902;4.314;2023-10-31T12:55:19;14.60;99.90
17715;DHT22;8977;50.902;4.314;2023-10-31T12:57:47;14.60;99.90
17715;DHT22;8977;50.902;4.314;2023-10-31T13:00:16;14.60;99.90
17715;DHT22;8977;50.902;4.314;2023-10-31T13:02:50;14.60;99.90
17715;DHT22;8977;50.902;4.314;2023-10-31T13:05:17;14.60;99.90
17715;DHT22;8977;50.902;4.314;2023-10-31T13:07:49;14.60;99.90
17715;DHT22;8977;50.902;4.314;2023-10-31T13:10:17;14.60;99.90
17715;DHT22;8977;50.902;4.314;2023-10-31T13:12:44;14.60;99.90
17715;DHT22;8977;50.902;4.314;2023-10-31T13:15:12;14.60;99.90
17715;DHT22;8977;50.902;4.314;2023-10-31T13:17:40;14.60;99.90
17715;DHT22;8977;50.902;4.314;2023-10-31T13:20:09;14.60;99.90
17715;DHT22;8977;50.902;4.314;2023-10-31T13:22:36;14.60;99.90
17715;DHT22;8977;50.902;4.314;2023-10-31T13:25:06;14.60;99.90
17715;DHT22;8977;50.902;4.314;2023-10-31T13:27:36;14.60;99.90
17715;DHT22;8977;50.902;4.314;2023-10-31T13:30:03;14.60;99.90
17715;DHT22;8977;50.902;4.314;2023-10-31T13:32:30;14.60;99.90
17715;DHT22;8977;50.902;4.314;2023-10-31T13:34:57;14.60;99.90
17715;DHT22;8977;50.902;4.314;2023-10-31T13:37:25;14.60;99.90
17715;DHT22;8977;50.902;4.314;2023-10-31T13:39:52;14.60;99.90
17715;DHT22;8977;50.902;4.314;2023-10-31T13:42:20;14.60;99.90
17715;DHT22;8977;50.902;4.314;2023-10-31T13:44:47;14.60;99.90
17715;DHT22;8977;50.902;4.314;2023-10-31T13:47:14;14.70;99.90
17715;DHT22;8977;50.902;4.314;2023-10-31T13:49:41;14.70;99.90
17715;DHT22;8977;50.902;4.314;2023-10-31T13:52:08;14.70;99.90
17715;DHT22;8977;50.902;4.314;2023-10-31T13:54:35;14.80;99.90
17715;DHT22;8977;50.902;4.314;2023-10-31T13:57:03;14.80;99.90
17715;DHT22;8977;50.902;4.314;2023-10-31T13:59:31;14.80;99.90
17715;DHT22;8977;50.902;4.314;2023-10-31T14:01:58;14.80;99.90
17715;DHT22;8977;50.902;4.314;2023-10-31T14:04:25;14.80;99.90
17715;DHT22;8977;50.902;4.314;2023-10-31T14:06:54;14.80;99.90
17715;DHT22;8977;50.902;4.314;2023-10-31T14:09:21;14.80;99.90
17715;DHT22;8977;50.902;4.314;2023-10-31T14:11:48;14.80;99.90
17715;DHT22;8977;50.902;4.314;2023-10-31T14:14:15;14.80;99.90
17715;DHT22;8977;50.902;4.314;2023-10-31T14:16:43;14.80;99.90
17715;DHT22;8977;50.902;4.314;2023-10-31T14:19:11;14.90;99.90
17715;DHT22;8977;50.902;4.314;2023-10-31T14:21:39;14.90;99.90
17715;DHT22;8977;50.902;4.314;2023-10-31T14:24:06;14.90;99.90
17715;DHT22;8977;50.902;4.314;2023-10-31T14:26:34;14.90;99.90
17715;DHT22;8977;50.902;4.314;2023-10-31T14:29:02;14.90;99.90
17715;DHT22;8977;50.902;4.314;2023-10-31T14:31:28;14.90;99.90
17715;DHT22;8977;50.902;4.314;2023-10-31T14:33:57;14.90;99.90
17715;DHT22;8977;50.902;4.314;2023-10-31T14:36:24;14.90;99.90
17715;DHT22;8977;50.902;4.314;2023-10-31T14:38:51;14.90;99.90
17715;DHT22;8977;50.902;4.314;2023-10-31T14:41:18;14.90;99.90
17715;DHT22;8977;50.902;4.314;2023-10-31T14:43:46;14.90;99.90
17715;DHT22;8977;50.902;4.314;2023-10-31T14:46:13;15.00;99.90
17715;DHT22;8977;50.902;4.314;2023-10-31T14:48:39;15.00;99.90
17715;DHT22;8977;50.902;4.314;2023-10-31T14:51:08;15.00;99.90
17715;DHT22;8977;50.902;4.314;2023-10-31T14:53:34;14.90;99.90
17715;DHT22;8977;50.902;4.314;2023-10-31T14:56:01;14.90;99.90
17715;DHT22;8977;50.902;4.314;2023-10-31T14:58:29;14.90;99.90
17715;DHT22;8977;50.902;4.314;2023-10-31T15:00:55;14.90;99.90
17715;DHT22;8977;50.902;4.314;2023-10-31T15:03:22;14.90;99.90
17715;DHT22;8977;50.902;4.314;2023-10-31T15:05:49;14.90;99.90
17715;DHT22;8977;50.902;4.314;2023-10-31T15:08:17;14.90;99.90
17715;DHT22;8977;50.902;4.314;2023-10-31T15:10:45;14.90;99.90
17715;DHT22;8977;50.902;4.314;2023-10-31T15:13:13;14.90;99.90
17715;DHT22;8977;50.902;4.314;2023-10-31T15:15:40;15.00;99.90
17715;DHT22;8977;50.902;4.314;2023-10-31T15:18:06;15.00;99.90
17715;DHT22;8977;50.902;4.314;2023-10-31T15:20:34;14.90;99.90
17715;DHT22;8977;50.902;4.314;2023-10-31T15:23:00;14.90;99.90
17715;DHT22;8977;50.902;4.314;2023-10-31T15:25:29;15.00;99.90
17715;DHT22;8977;50.902;4.314;2023-10-31T15:27:56;15.00;99.90
17715;DHT22;8977;50.902;4.314;2023-10-31T15:30:23;15.00;99.90
17715;DHT22;8977;50.902;4.314;2023-10-31T15:32:49;14.90;99.90
17715;DHT22;8977;50.902;4.314;2023-10-31T15:35:16;14.90;99.90
17715;DHT22;8977;50.902;4.314;2023-10-31T15:37:43;14.90;99.90
17715;DHT22;8977;50.902;4.314;2023-10-31T15:40:11;14.90;99.90
17715;DHT22;8977;50.902;4.314;2023-10-31T15:42:39;14.90;99.90
17715;DHT22;8977;50.902;4.314;2023-10-31T15:45:07;15.00;99.90
17715;DHT22;8977;50.902;4.314;2023-10-31T15:47:34;15.00;99.90